createdAt,value
2022-09-12T00:01:38.570Z,13.69
2022-09-12T00:04:05.539Z,13.69
2022-09-12T00:06:36.948Z,13.70
2022-09-12T00:09:09.883Z,13.69
2022-09-12T00:11:38.214Z,13.73
2022-09-12T00:14:06.831Z,13.72
2022-09-12T00:16:35.290Z,13.75
2022-09-12T00:19:03.195Z,13.80
2022-09-12T00:21:32.341Z,13.78
2022-09-12T00:23:59.069Z,13.79
2022-09-12T00:26:25.942Z,13.79
2022-09-12T00:28:52.984Z,13.81
2022-09-12T00:31:24.168Z,13.83
2022-09-12T00:33:51.569Z,13.87
2022-09-12T00:36:23.087Z,13.93
2022-09-12T00:38:51.122Z,13.96
2022-09-12T00:41:19.921Z,14.00
2022-09-12T00:43:56.038Z,14.04
2022-09-12T00:46:46.050Z,14.10
2022-09-12T00:49:36.605Z,14.15
2022-09-12T00:52:10.539Z,14.20
2022-09-12T00:55:15.825Z,14.22
2022-09-12T00:57:50.021Z,14.27
2022-09-12T01:00:19.757Z,14.27
2022-09-12T01:02:54.917Z,14.32
2022-09-12T01:05:23.473Z,14.34
2022-09-12T01:07:51.806Z,14.34
2022-09-12T01:10:19.679Z,14.36
2022-09-12T01:12:47.610Z,14.32
2022-09-12T01:15:14.488Z,14.34
2022-09-12T01:18:01.336Z,14.35
2022-09-12T01:20:40.213Z,14.37
2022-09-12T01:23:09.106Z,14.36
2022-09-12T01:26:07.929Z,14.34
2022-09-12T01:28:53.334Z,14.36
2022-09-12T01:31:35.215Z,14.39
2022-09-12T01:34:33.145Z,14.37
2022-09-12T01:37:26.689Z,14.33
2022-09-12T01:40:15.292Z,14.35
2022-09-12T01:42:52.158Z,14.32
2022-09-12T01:45:41.516Z,14.29
2022-09-12T01:48:19.698Z,14.34
2022-09-12T01:50:52.451Z,14.31
2022-09-12T01:53:26.350Z,14.34
2022-09-12T01:56:25.741Z,14.36
2022-09-12T01:58:58.322Z,14.29
2022-09-12T02:01:35.375Z,14.27
2022-09-12T02:04:15.339Z,14.30
2022-09-12T02:06:52.381Z,14.26
2022-09-12T02:09:23.916Z,14.26
2022-09-12T02:11:53.595Z,14.24
2022-09-12T02:14:33.998Z,14.24
2022-09-12T02:17:11.910Z,14.26
2022-09-12T02:19:47.061Z,14.25
2022-09-12T02:22:18.301Z,14.32
2022-09-12T02:24:50.762Z,14.31
2022-09-12T02:27:23.201Z,14.38
2022-09-12T02:29:50.541Z,14.37
2022-09-12T02:32:36.386Z,14.40
2022-09-12T02:35:22.628Z,14.48
2022-09-12T02:37:58.424Z,14.49
2022-09-12T02:40:25.770Z,14.49
2022-09-12T02:42:52.709Z,14.53
2022-09-12T02:45:19.561Z,14.52
2022-09-12T02:47:53.739Z,14.52
2022-09-12T02:50:21.054Z,14.49
2022-09-12T02:52:48.642Z,14.51
2022-09-12T02:55:16.510Z,14.56
2022-09-12T02:57:43.171Z,14.55
2022-09-12T03:00:10.454Z,14.56
2022-09-12T03:03:04.238Z,14.51
2022-09-12T03:05:35.233Z,14.47
2022-09-12T03:08:31.391Z,14.50
2022-09-12T03:11:00.976Z,14.52
2022-09-12T03:13:42.944Z,14.55
2022-09-12T03:16:41.725Z,14.46
2022-09-12T03:19:24.182Z,14.38
2022-09-12T03:22:09.180Z,14.35
2022-09-12T03:24:43.671Z,14.34
2022-09-12T03:27:17.066Z,14.28
2022-09-12T03:29:47.923Z,14.27
2022-09-12T03:32:15.421Z,14.25
2022-09-12T03:34:42.147Z,14.25
2022-09-12T03:37:08.981Z,14.24
2022-09-12T03:39:35.644Z,14.16
2022-09-12T03:42:02.352Z,14.18
2022-09-12T03:44:29.129Z,14.17
2022-09-12T03:46:55.834Z,14.05
2022-09-12T03:49:22.596Z,14.13
2022-09-12T03:51:49.356Z,14.05
2022-09-12T03:54:16.132Z,14.04
2022-09-12T03:56:42.866Z,14.04
2022-09-12T03:59:09.567Z,14.09
2022-09-12T04:01:37.851Z,13.93
2022-09-12T04:04:04.583Z,13.93
2022-09-12T04:06:31.753Z,13.94
2022-09-12T04:11:39.088Z,14.04
2022-09-12T04:14:05.860Z,13.98
2022-09-12T04:16:32.980Z,14.01
2022-09-12T04:18:59.747Z,14.05
2022-09-12T04:21:26.520Z,14.08
2022-09-12T04:23:53.260Z,14.06
2022-09-12T04:26:21.200Z,14.08
2022-09-12T04:28:48.440Z,14.06
2022-09-12T04:31:18.104Z,14.11
2022-09-12T04:33:45.685Z,14.13
2022-09-12T04:36:16.627Z,14.07
2022-09-12T04:38:45.434Z,14.03
2022-09-12T04:41:16.541Z,14.07
2022-09-12T04:43:47.101Z,14.06
2022-09-12T04:46:17.025Z,14.02
2022-09-12T04:48:44.280Z,14.05
2022-09-12T04:51:21.097Z,14.07
2022-09-12T04:53:50.542Z,13.99
2022-09-12T04:56:17.439Z,13.86
2022-09-12T04:58:44.754Z,13.92
2022-09-12T05:01:17.173Z,13.85
2022-09-12T05:03:45.627Z,13.86
2022-09-12T05:06:15.720Z,13.68
2022-09-12T05:08:43.065Z,13.73
2022-09-12T05:11:22.730Z,13.66
2022-09-12T05:13:51.872Z,13.60
2022-09-12T05:16:20.093Z,13.61
2022-09-12T05:18:47.637Z,13.59
2022-09-12T05:21:17.890Z,13.55
2022-09-12T05:23:47.867Z,13.53
2022-09-12T05:26:16.272Z,13.48
2022-09-12T05:28:43.836Z,13.47
2022-09-12T05:31:25.373Z,13.46
2022-09-12T05:33:53.076Z,13.47
2022-09-12T05:36:22.548Z,13.44
2022-09-12T05:38:49.848Z,13.41
2022-09-12T05:41:22.989Z,13.39
2022-09-12T05:43:53.810Z,13.34
2022-09-12T05:46:22.682Z,13.31
2022-09-12T05:48:55.068Z,13.29
2022-09-12T05:51:28.472Z,13.30
2022-09-12T05:53:57.943Z,13.21
2022-09-12T05:56:27.377Z,13.26
2022-09-12T05:58:55.903Z,13.29
2022-09-12T06:01:23.452Z,13.25
2022-09-12T06:03:52.842Z,13.35
2022-09-12T06:06:21.832Z,13.26
2022-09-12T06:08:51.530Z,13.30
2022-09-12T06:11:22.012Z,13.27
2022-09-12T06:13:50.482Z,14.12
2022-09-12T06:16:19.639Z,14.86
2022-09-12T06:18:56.591Z,15.64
2022-09-12T06:21:24.702Z,16.02
2022-09-12T06:23:51.483Z,16.08
2022-09-12T06:26:21.675Z,16.31
2022-09-12T06:28:48.581Z,16.83
2022-09-12T06:31:18.925Z,17.25
2022-09-12T06:33:48.900Z,17.37
2022-09-12T06:36:18.030Z,17.88
2022-09-12T06:38:51.409Z,18.15
2022-09-12T06:41:18.161Z,18.45
2022-09-12T06:43:46.373Z,18.82
2022-09-12T06:46:13.234Z,19.20
2022-09-12T06:48:42.053Z,19.31
2022-09-12T06:51:14.797Z,19.44
2022-09-12T06:53:42.483Z,19.93
2022-09-12T06:56:12.668Z,19.90
2022-09-12T06:58:40.145Z,20.64
2022-09-12T07:01:12.861Z,19.87
2022-09-12T07:03:39.956Z,20.08
2022-09-12T07:06:07.961Z,20.45
2022-09-12T07:08:35.949Z,20.73
2022-09-12T07:11:10.541Z,20.95
2022-09-12T07:13:38.092Z,20.50
2022-09-12T07:16:05.711Z,19.44
2022-09-12T07:18:34.074Z,18.83
2022-09-12T07:21:04.904Z,18.40
2022-09-12T07:23:31.771Z,18.28
2022-09-12T07:26:00.708Z,18.63
2022-09-12T07:28:30.234Z,18.34
2022-09-12T07:30:57.321Z,18.09
2022-09-12T07:33:27.706Z,18.63
2022-09-12T07:35:55.062Z,17.26
2022-09-12T07:38:22.217Z,18.41
2022-09-12T07:40:49.481Z,17.53
2022-09-12T07:43:16.094Z,18.08
2022-09-12T07:45:43.511Z,19.48
2022-09-12T07:48:10.175Z,19.54
2022-09-12T07:50:37.211Z,19.71
2022-09-12T07:53:05.186Z,20.50
2022-09-12T07:55:32.326Z,21.32
2022-09-12T07:57:59.101Z,21.17
2022-09-12T08:00:26.712Z,20.98
2022-09-12T08:02:54.128Z,21.40
2022-09-12T08:05:20.992Z,21.57
2022-09-12T08:07:47.827Z,21.65
2022-09-12T08:10:16.324Z,21.92
2022-09-12T08:12:42.981Z,21.92
2022-09-12T08:15:10.017Z,21.43
2022-09-12T08:17:36.788Z,21.68
2022-09-12T08:20:04.297Z,21.69
2022-09-12T08:22:31.581Z,22.55
2022-09-12T08:24:58.707Z,22.03
2022-09-12T08:27:25.374Z,21.61
2022-09-12T08:29:53.731Z,21.95
2022-09-12T08:32:20.426Z,22.47
2022-09-12T08:34:47.168Z,22.40
2022-09-12T08:37:13.838Z,22.12
2022-09-12T08:39:40.613Z,21.82
2022-09-12T08:45:00.793Z,20.57
2022-09-12T08:47:44.172Z,21.15
2022-09-12T08:50:11.686Z,20.96
2022-09-12T08:53:06.294Z,22.02
2022-09-12T08:55:45.258Z,20.91
2022-09-12T08:58:20.870Z,20.33
2022-09-12T09:00:59.574Z,20.39
2022-09-12T09:03:38.770Z,20.34
2022-09-12T09:06:13.273Z,18.85
2022-09-12T09:08:58.373Z,19.24
2022-09-12T09:11:54.558Z,18.13
2022-09-12T09:15:09.312Z,18.53
2022-09-12T09:17:40.211Z,18.15
2022-09-12T09:20:28.890Z,18.22
2022-09-12T09:23:10.768Z,17.37
2022-09-12T09:26:01.882Z,18.12
2022-09-12T09:28:43.156Z,19.07
2022-09-12T09:31:16.826Z,19.46
2022-09-12T09:33:46.483Z,19.59
2022-09-12T09:36:50.376Z,19.29
2022-09-12T09:39:25.927Z,19.14
2022-09-12T09:42:18.750Z,18.43
2022-09-12T09:44:49.111Z,18.37
2022-09-12T09:47:19.291Z,18.98
2022-09-12T09:49:47.282Z,19.55
2022-09-12T09:52:27.418Z,19.42
2022-09-12T09:55:03.017Z,18.96
2022-09-12T09:57:35.828Z,19.13
2022-09-12T10:00:26.002Z,19.24
2022-09-12T10:03:00.955Z,19.01
2022-09-12T10:05:28.771Z,18.92
2022-09-12T10:07:55.619Z,20.10
2022-09-12T10:10:23.191Z,20.94
2022-09-12T10:12:50.496Z,19.87
2022-09-12T10:15:18.795Z,21.27
2022-09-12T10:17:47.855Z,21.43
2022-09-12T10:20:42.089Z,20.63
2022-09-12T10:23:17.972Z,19.97
2022-09-12T10:26:08.465Z,19.93
2022-09-12T10:28:56.290Z,19.62
2022-09-12T10:32:03.278Z,19.77
2022-09-12T10:34:36.312Z,19.34
2022-09-12T10:37:07.198Z,19.19
2022-09-12T10:39:36.268Z,19.29
2022-09-12T10:42:04.295Z,19.08
2022-09-12T10:44:33.792Z,19.08
2022-09-12T10:47:20.384Z,19.24
2022-09-12T10:49:47.201Z,19.10
2022-09-12T10:52:23.140Z,19.06
2022-09-12T10:54:53.718Z,18.98
2022-09-12T10:57:21.132Z,19.41
2022-09-12T10:59:50.731Z,19.67
2022-09-12T11:02:53.241Z,19.91
2022-09-12T11:05:38.096Z,19.64
2022-09-12T11:08:23.295Z,19.29
2022-09-12T11:11:18.675Z,19.14
2022-09-12T11:14:12.810Z,19.63
2022-09-12T11:16:50.612Z,18.95
2022-09-12T11:19:54.889Z,19.30
2022-09-12T11:22:38.965Z,19.09
2022-09-12T11:25:13.950Z,18.67
2022-09-12T11:28:02.266Z,19.03
2022-09-12T11:30:39.276Z,18.98
2022-09-12T11:33:30.524Z,18.35
2022-09-12T11:35:57.880Z,18.95
2022-09-12T11:38:39.495Z,18.22
2022-09-12T11:41:11.507Z,18.70
2022-09-12T11:43:55.574Z,18.21
2022-09-12T11:46:34.002Z,18.20
2022-09-12T11:49:35.265Z,17.99
2022-09-12T11:52:23.870Z,18.05
2022-09-12T11:55:08.533Z,18.44
2022-09-12T11:57:45.773Z,18.69
2022-09-12T12:00:19.634Z,19.48
2022-09-12T12:03:13.748Z,19.44
2022-09-12T12:05:40.458Z,19.31
2022-09-12T12:08:08.060Z,19.48
2022-09-12T12:10:50.718Z,19.49
2022-09-12T12:13:29.724Z,19.52
2022-09-12T12:16:00.960Z,19.20
2022-09-12T12:18:31.953Z,19.58
2022-09-12T12:21:18.611Z,19.17
2022-09-12T12:24:02.525Z,19.07
2022-09-12T12:26:41.361Z,18.89
2022-09-12T12:29:12.720Z,18.73
2022-09-12T12:32:05.167Z,18.84
2022-09-12T12:34:41.942Z,18.62
2022-09-12T12:37:20.938Z,18.88
2022-09-12T12:39:51.046Z,18.75
2022-09-12T12:42:33.397Z,18.54
2022-09-12T12:45:08.968Z,18.13
2022-09-12T12:47:38.625Z,18.57
2022-09-12T12:50:14.192Z,18.16
2022-09-12T12:52:51.991Z,18.12
2022-09-12T12:55:27.793Z,18.21
2022-09-12T12:57:56.838Z,18.36
2022-09-12T13:00:26.651Z,18.08
2022-09-12T13:03:01.569Z,17.80
2022-09-12T13:05:38.295Z,17.66
2022-09-12T13:08:10.468Z,17.72
2022-09-12T13:10:38.228Z,18.28
2022-09-12T13:13:08.749Z,17.93
2022-09-12T13:15:50.269Z,18.19
2022-09-12T13:18:23.509Z,18.14
2022-09-12T13:21:13.389Z,18.08
2022-09-12T13:23:41.325Z,17.86
2022-09-12T13:26:22.548Z,18.01
2022-09-12T13:28:50.194Z,18.05
2022-09-12T13:31:19.831Z,18.26
2022-09-12T13:33:54.732Z,18.28
2022-09-12T13:36:44.836Z,18.28
2022-09-12T13:39:29.272Z,17.97
2022-09-12T13:42:32.978Z,18.05
2022-09-12T13:45:22.137Z,18.11
2022-09-12T13:47:58.744Z,17.95
2022-09-12T13:50:31.853Z,17.96
2022-09-12T13:53:02.092Z,18.20
2022-09-12T13:55:32.596Z,18.27
2022-09-12T13:58:07.564Z,17.96
2022-09-12T14:00:35.108Z,18.08
2022-09-12T14:03:20.772Z,18.00
2022-09-12T14:05:57.429Z,17.98
2022-09-12T14:08:24.830Z,18.13
2022-09-12T14:10:51.610Z,18.24
2022-09-12T14:13:25.259Z,18.95
2022-09-12T14:15:54.963Z,18.80
2022-09-12T14:18:31.227Z,19.22
2022-09-12T14:21:09.073Z,18.85
2022-09-12T14:23:41.032Z,18.57
2022-09-12T14:26:12.453Z,18.66
2022-09-12T14:28:43.408Z,18.69
2022-09-12T14:31:13.133Z,18.77
2022-09-12T14:33:52.255Z,19.02
2022-09-12T14:36:22.023Z,18.95
2022-09-12T14:39:02.423Z,19.08
2022-09-12T14:41:37.656Z,18.58
2022-09-12T14:44:15.455Z,18.63
2022-09-12T14:46:44.398Z,18.01
2022-09-12T14:49:16.332Z,18.21
2022-09-12T14:51:51.912Z,17.75
2022-09-12T14:54:27.809Z,17.83
2022-09-12T14:57:00.479Z,17.61
2022-09-12T14:59:40.413Z,17.35
2022-09-12T15:02:19.762Z,17.49
2022-09-12T15:04:55.312Z,17.43
2022-09-12T15:07:39.098Z,17.86
2022-09-12T15:10:25.183Z,17.52
2022-09-12T15:13:09.948Z,17.07
2022-09-12T15:15:39.364Z,17.29
2022-09-12T15:18:06.976Z,17.02
2022-09-12T15:20:39.015Z,17.26
2022-09-12T15:23:13.229Z,17.24
2022-09-12T15:25:39.997Z,17.29
2022-09-12T15:28:16.926Z,17.19
2022-09-12T15:30:44.045Z,16.90
2022-09-12T15:33:12.140Z,16.72
2022-09-12T15:35:39.409Z,15.73
2022-09-12T15:38:06.133Z,15.19
2022-09-12T15:40:32.836Z,14.80
2022-09-12T15:43:00.039Z,15.00
2022-09-12T15:45:30.319Z,15.19
2022-09-12T15:47:57.730Z,15.39
2022-09-12T15:50:25.300Z,15.07
2022-09-12T15:52:52.485Z,15.14
2022-09-12T15:55:28.711Z,15.32
2022-09-12T15:57:55.824Z,15.27
2022-09-12T16:00:23.862Z,15.26
2022-09-12T16:02:52.953Z,15.44
2022-09-12T16:05:24.400Z,15.49
2022-09-12T16:07:53.762Z,15.45
2022-09-12T16:10:29.900Z,15.74
2022-09-12T16:12:57.432Z,15.77
2022-09-12T16:15:26.099Z,15.70
2022-09-12T16:17:53.209Z,15.90
2022-09-12T16:20:21.046Z,16.01
2022-09-12T16:22:48.113Z,15.99
2022-09-12T16:25:14.880Z,16.01
2022-09-12T16:27:42.024Z,15.89
2022-09-12T16:30:10.315Z,16.05
2022-09-12T16:32:37.103Z,15.82
2022-09-12T16:35:04.847Z,15.86
2022-09-12T16:37:32.388Z,15.73
2022-09-12T16:39:59.214Z,15.80
2022-09-12T16:42:26.007Z,15.90
2022-09-12T16:44:52.685Z,15.89
2022-09-12T16:47:19.847Z,15.87
2022-09-12T16:49:46.616Z,15.83
2022-09-12T16:52:16.505Z,15.82
2022-09-12T16:54:44.705Z,15.80
2022-09-12T16:57:12.024Z,15.73
2022-09-12T16:59:38.760Z,15.62
2022-09-12T17:02:06.182Z,15.65
2022-09-12T17:04:33.030Z,15.61
2022-09-12T17:06:59.726Z,15.61
2022-09-12T17:09:28.179Z,15.72
2022-09-12T17:11:55.536Z,15.65
2022-09-12T17:14:22.484Z,15.65
2022-09-12T17:16:51.887Z,15.48
2022-09-12T17:19:29.637Z,15.46
2022-09-12T17:21:57.215Z,15.45
2022-09-12T17:24:24.132Z,15.56
2022-09-12T17:26:51.673Z,15.51
2022-09-12T17:29:18.476Z,15.44
2022-09-12T17:31:45.629Z,15.49
2022-09-12T17:34:14.631Z,15.49
2022-09-12T17:36:44.367Z,15.60
2022-09-12T17:39:13.102Z,15.75
2022-09-12T17:41:41.789Z,15.76
2022-09-12T17:44:11.786Z,15.69
2022-09-12T17:46:39.732Z,15.65
2022-09-12T17:49:11.539Z,15.62
2022-09-12T17:51:38.313Z,15.50
2022-09-12T17:54:17.066Z,15.43
2022-09-12T17:56:46.572Z,15.17
2022-09-12T17:59:19.210Z,15.27
2022-09-12T18:02:05.479Z,15.22
2022-09-12T18:04:32.657Z,15.14
2022-09-12T18:07:00.479Z,15.11
2022-09-12T18:09:28.136Z,15.04
2022-09-12T18:11:55.384Z,14.84
2022-09-12T18:14:22.326Z,14.71
2022-09-12T18:16:49.384Z,14.54
2022-09-12T18:19:16.779Z,14.68
2022-09-12T18:21:43.441Z,14.54
2022-09-12T18:24:10.937Z,14.46
2022-09-12T18:26:38.028Z,14.47
2022-09-12T18:29:04.921Z,14.43
2022-09-12T18:31:31.797Z,14.43
2022-09-12T18:34:00.370Z,14.43
2022-09-12T18:36:27.626Z,14.28
2022-09-12T18:38:55.188Z,14.43
2022-09-12T18:41:24.052Z,14.20
2022-09-12T18:43:56.125Z,14.14
2022-09-12T18:46:23.139Z,13.96
2022-09-12T18:48:49.982Z,13.95
2022-09-12T18:51:20.058Z,13.78
2022-09-12T18:53:57.971Z,13.86
2022-09-12T18:56:27.577Z,13.80
2022-09-12T18:58:56.654Z,13.68
2022-09-12T19:01:28.723Z,13.73
2022-09-12T19:03:55.833Z,13.71
2022-09-12T19:06:27.901Z,13.64
2022-09-12T19:08:56.212Z,13.57
2022-09-12T19:11:23.773Z,13.47
2022-09-12T19:13:52.346Z,13.36
2022-09-12T19:16:21.890Z,13.20
2022-09-12T19:18:49.920Z,13.13
2022-09-12T19:21:19.236Z,13.08
2022-09-12T19:23:46.364Z,13.18
2022-09-12T19:26:14.854Z,13.27
2022-09-12T19:28:42.618Z,13.24
2022-09-12T19:31:12.286Z,13.20
2022-09-12T19:33:39.504Z,13.14
2022-09-12T19:36:22.246Z,13.12
2022-09-12T19:38:55.746Z,13.11
2022-09-12T19:41:22.497Z,13.06
2022-09-12T19:43:49.304Z,13.08
2022-09-12T19:46:24.804Z,13.00
2022-09-12T19:48:52.585Z,12.96
2022-09-12T19:51:20.799Z,12.96
2022-09-12T19:53:50.198Z,12.84
2022-09-12T19:56:17.200Z,12.83
2022-09-12T19:58:48.311Z,12.91
2022-09-12T20:01:24.695Z,12.91
2022-09-12T20:03:54.489Z,12.86
2022-09-12T20:06:21.307Z,12.81
2022-09-12T20:08:48.131Z,12.77
2022-09-12T20:11:17.647Z,12.73
2022-09-12T20:13:45.660Z,12.72
2022-09-12T20:16:21.428Z,12.69
2022-09-12T20:18:53.613Z,12.64
2022-09-12T20:21:23.445Z,12.58
2022-09-12T20:23:50.203Z,12.57
2022-09-12T20:26:17.385Z,12.51
2022-09-12T20:28:44.150Z,12.51
2022-09-12T20:31:13.804Z,12.48
2022-09-12T20:33:40.773Z,12.45
2022-09-12T20:36:10.758Z,12.42
2022-09-12T20:38:38.751Z,12.51
2022-09-12T20:41:07.372Z,12.50
2022-09-12T20:43:34.110Z,12.48
2022-09-12T20:46:05.335Z,12.37
2022-09-12T20:48:32.805Z,12.46
2022-09-12T20:50:59.801Z,12.41
2022-09-12T20:53:29.638Z,12.22
2022-09-12T20:55:58.537Z,12.08
2022-09-12T20:58:25.279Z,12.07
2022-09-12T21:00:52.326Z,12.04
2022-09-12T21:03:19.243Z,11.92
2022-09-12T21:05:46.665Z,11.81
2022-09-12T21:08:14.638Z,11.83
2022-09-12T21:10:42.713Z,11.79
2022-09-12T21:13:10.788Z,11.86
2022-09-12T21:15:41.345Z,12.07
2022-09-12T21:18:08.270Z,12.15
2022-09-12T21:20:35.049Z,12.11
2022-09-12T21:23:01.936Z,12.04
2022-09-12T21:25:30.050Z,12.13
2022-09-12T21:27:57.117Z,12.24
2022-09-12T21:30:24.100Z,12.20
2022-09-12T21:32:50.814Z,12.02
2022-09-12T21:35:17.525Z,12.02
2022-09-12T21:37:44.281Z,12.09
2022-09-12T21:40:11.323Z,12.10
2022-09-12T21:42:38.188Z,12.17
2022-09-12T21:45:05.288Z,12.26
2022-09-12T21:47:32.082Z,12.17
2022-09-12T21:49:58.807Z,12.04
2022-09-12T21:52:25.668Z,12.02
2022-09-12T21:54:52.351Z,12.15
2022-09-12T21:57:19.042Z,12.11
2022-09-12T21:59:45.773Z,12.24
2022-09-12T22:02:13.845Z,12.24
2022-09-12T22:04:40.544Z,12.19
2022-09-12T22:07:07.835Z,12.39
2022-09-12T22:09:34.822Z,12.37
2022-09-12T22:12:02.445Z,12.44
2022-09-12T22:14:29.534Z,12.45
2022-09-12T22:16:56.798Z,12.49
2022-09-12T22:19:23.688Z,12.49
2022-09-12T22:22:09.285Z,12.53
2022-09-12T22:24:36.136Z,12.75
2022-09-12T22:27:04.687Z,12.59
2022-09-12T22:29:32.060Z,12.72
2022-09-12T22:31:59.572Z,12.71
2022-09-12T22:34:27.231Z,12.70
2022-09-12T22:36:54.139Z,12.69
2022-09-12T22:39:20.918Z,12.80
2022-09-12T22:41:47.597Z,12.78
2022-09-12T22:44:14.367Z,12.79
2022-09-12T22:46:41.138Z,12.62
2022-09-12T22:49:07.985Z,12.67
2022-09-12T22:51:35.325Z,12.42
2022-09-12T22:54:02.484Z,12.35
2022-09-12T22:56:29.295Z,12.42
2022-09-12T22:58:56.083Z,12.20
2022-09-12T23:01:24.007Z,12.28
2022-09-12T23:03:51.236Z,12.31
2022-09-12T23:06:18.025Z,12.37
2022-09-12T23:08:44.858Z,12.37
2022-09-12T23:11:17.429Z,12.36
2022-09-12T23:13:46.286Z,12.35
2022-09-12T23:16:24.984Z,12.50
2022-09-12T23:18:52.332Z,12.26
2022-09-12T23:21:20.554Z,12.11
2022-09-12T23:23:47.725Z,12.05
2022-09-12T23:26:22.679Z,12.02
2022-09-12T23:28:55.309Z,12.02
2022-09-12T23:31:24.277Z,12.08
2022-09-12T23:33:54.660Z,12.12
2022-09-12T23:36:22.486Z,12.13
2022-09-12T23:38:49.738Z,12.12
2022-09-12T23:41:17.982Z,12.05
2022-09-12T23:43:45.659Z,12.00
2022-09-12T23:46:13.675Z,12.00
2022-09-12T23:48:41.092Z,11.91
2022-09-12T23:51:07.842Z,11.95
2022-09-12T23:53:35.795Z,11.96
2022-09-12T23:56:03.248Z,11.93
2022-09-12T23:58:31.012Z,11.99
